Rio Crespo, Brazil
Current Conditions -  °F | °C
As of 3:00 AM on Saturday 25 Oct 2014 (Local Time) from SBPV Reporting Station
Drizzle Drizzle  
Wind Chill: 72°   Ceiling: 7000
Heat Index: 72°   Visibility: 5mi
Dew Point: 70°   Wind: 3mph
Humidity: 94%   Direction: 50°NE
Pressure: NA   Gusts: NA
Location:  9.71°S, 62.9°W
Report Text: SBPV 250700Z 05003KT 8000 -DZ SCT004 FEW020TCU OVC070 22/21 Q1009
Loading
Personal Weather Stations






























Interactive Weather Map
Tropical Storm Tracking
New forecast layout! Learn more

10-Day Weather Forecast

Advertisements
Track Severe Weather on mobile